Time;durP1;ratioP1;P1;durP2;ratioP2;P2;SDS_P1;SDS_P2;PMS_P1;PMS_P2;Temp;Humidity;BMP_temperature;BMP_pressure;BME280_temperature;BME280_humidity;BME280_pressure;Samples;Min_cycle;Max_cycle;Signal;HPM_P1;HPM_P2
2024/01/17 00:01:59;;;;;;;42.33;21.30;;;;;;;0.00;100.00;99589.47;5051677;28;20025;-72
2024/01/17 00:04:27;;;;;;;38.47;21.15;;;;;;;0.06;100.00;99595.81;5039421;28;20024;-72
2024/01/17 00:06:53;;;;;;;39.75;20.10;;;;;;;-0.19;100.00;99583.47;5051542;28;20096;-72
2024/01/17 00:09:19;;;;;;;31.48;19.33;;;;;;;-0.02;100.00;99566.88;5052556;28;20052;-72
2024/01/17 00:11:44;;;;;;;36.58;21.02;;;;;;;0.12;100.00;99572.75;5064800;28;20529;-72
2024/01/17 00:14:11;;;;;;;35.08;21.15;;;;;;;-0.06;100.00;99582.25;5041673;28;20036;-71
2024/01/17 00:16:37;;;;;;;31.88;18.13;;;;;;;-0.22;100.00;99579.34;5051432;28;20021;-71
2024/01/17 00:19:02;;;;;;;37.35;20.27;;;;;;;-0.22;100.00;99573.84;5051421;28;20074;-72
2024/01/17 00:21:28;;;;;;;39.58;21.13;;;;;;;-0.33;100.00;99566.59;5051278;28;20502;-72
2024/01/17 00:23:54;;;;;;;41.30;21.05;;;;;;;-0.22;100.00;99573.84;5036260;28;20036;-72
2024/01/17 00:26:20;;;;;;;32.50;18.45;;;;;;;-0.23;100.00;99566.69;5064537;28;20021;-72
2024/01/17 00:28:45;;;;;;;33.80;18.50;;;;;;;-0.36;100.00;99567.09;5051621;28;20112;-72
2024/01/17 00:31:11;;;;;;;37.47;19.38;;;;;;;-0.23;100.00;99572.19;5033229;28;20036;-71
2024/01/17 00:33:36;;;;;;;48.10;23.23;;;;;;;-0.25;100.00;99576.28;5057363;28;20373;-72
2024/01/17 00:36:02;;;;;;;43.80;23.13;;;;;;;-0.28;100.00;99574.88;5071082;28;20028;-72
2024/01/17 00:38:28;;;;;;;42.95;20.67;;;;;;;-0.35;100.00;99571.53;5053133;28;20024;-72
2024/01/17 00:40:53;;;;;;;37.65;19.20;;;;;;;-0.32;100.00;99573.75;5060261;28;20043;-71
2024/01/17 00:43:19;;;;;;;43.08;21.65;;;;;;;-0.67;100.00;99572.28;5054723;28;20020;-72
2024/01/17 00:45:45;;;;;;;41.28;23.33;;;;;;;-0.73;100.00;99577.72;5070278;28;20453;-72
2024/01/17 00:48:13;;;;;;;50.08;22.88;;;;;;;-0.54;100.00;99577.38;5033091;28;20098;-72
2024/01/17 00:50:39;;;;;;;44.65;23.13;;;;;;;-0.68;100.00;99573.38;5051008;28;20013;-72
2024/01/17 00:53:05;;;;;;;51.38;23.58;;;;;;;-0.94;100.00;99573.09;5050903;28;20047;-71
2024/01/17 00:55:31;;;;;;;51.25;24.35;;;;;;;-0.89;100.00;99573.13;5050205;28;20082;-72
2024/01/17 00:57:56;;;;;;;49.80;24.00;;;;;;;-0.95;100.00;99582.41;5050849;28;20025;-71
2024/01/17 01:00:22;;;;;;;45.67;23.75;;;;;;;-0.99;100.00;99588.41;5050757;28;20024;-71
2024/01/17 01:02:47;;;;;;;43.15;21.85;;;;;;;-0.95;100.00;99579.66;5054866;28;20045;-71
2024/01/17 01:05:13;;;;;;;40.47;21.40;;;;;;;-1.09;100.00;99585.53;5073757;28;20398;-72
2024/01/17 01:07:38;;;;;;;39.80;21.30;;;;;;;-1.14;100.00;99594.53;5073326;28;20035;-71
2024/01/17 01:10:04;;;;;;;38.97;19.10;;;;;;;-1.27;100.00;99586.66;5066717;28;20494;-71
2024/01/17 01:12:29;;;;;;;37.63;21.02;;;;;;;-1.27;100.00;99600.38;5055603;28;20060;-71
2024/01/17 01:14:55;;;;;;;41.63;21.90;;;;;;;-1.34;100.00;99597.00;5036860;28;20064;-71
2024/01/17 01:17:20;;;;;;;37.33;18.40;;;;;;;-1.29;100.00;99608.03;5051108;28;20040;-71
2024/01/17 01:19:46;;;;;;;34.33;17.23;;;;;;;-1.44;100.00;99593.03;5074705;28;20029;-71
2024/01/17 01:22:11;;;;;;;32.30;17.75;;;;;;;-1.41;100.00;99602.66;5074630;28;20488;-71
2024/01/17 01:24:37;;;;;;;32.45;17.40;;;;;;;-1.35;100.00;99598.91;5074597;28;20020;-72
2024/01/17 01:27:02;;;;;;;32.47;17.73;;;;;;;-1.36;100.00;99596.44;5073366;28;20082;-71
2024/01/17 01:29:28;;;;;;;34.78;16.73;;;;;;;-1.38;100.00;99593.13;5065990;28;20017;-72
2024/01/17 01:31:54;;;;;;;45.45;23.95;;;;;;;-1.36;100.00;99602.72;5054346;28;20021;-72
2024/01/17 01:34:19;;;;;;;68.82;28.70;;;;;;;-1.35;100.00;99593.41;5058027;28;20028;-72
2024/01/17 01:36:45;;;;;;;38.58;20.35;;;;;;;-1.33;100.00;99591.28;5073906;28;20050;-71
2024/01/17 01:39:10;;;;;;;30.05;17.88;;;;;;;-1.35;100.00;99590.66;5074213;28;20600;-71
2024/01/17 01:41:36;;;;;;;27.98;15.98;;;;;;;-1.30;100.00;99599.00;5067747;28;20036;-72
2024/01/17 01:44:01;;;;;;;31.70;15.32;;;;;;;-1.35;100.00;99604.38;5074214;28;20086;-71
2024/01/17 01:46:29;;;;;;;35.03;17.17;;;;;;;-1.46;100.00;99600.69;5060420;28;20176;-71
2024/01/17 01:48:54;;;;;;;31.38;16.10;;;;;;;-1.48;100.00;99602.00;5036265;28;20112;-71
2024/01/17 01:51:20;;;;;;;28.25;17.02;;;;;;;-1.48;100.00;99591.03;5036167;28;20466;-72
2024/01/17 01:53:55;;;;;;;40.55;20.45;;;;;;;-1.49;100.00;99592.13;5036037;28;20171;-72
2024/01/17 01:56:24;;;;;;;35.95;21.40;;;;;;;-1.53;100.00;99594.53;5059569;28;20047;-72
2024/01/17 01:58:52;;;;;;;35.80;19.60;;;;;;;-1.39;100.00;99596.91;5056042;28;20043;-72
2024/01/17 02:01:18;;;;;;;36.38;20.10;;;;;;;-1.31;100.00;99591.84;5051807;28;20035;-71
2024/01/17 02:03:45;;;;;;;41.33;21.67;;;;;;;-1.20;100.00;99583.75;5053771;28;20017;-72
2024/01/17 02:06:12;;;;;;;33.30;19.20;;;;;;;-1.17;100.00;99588.72;5057672;28;20104;-72
2024/01/17 02:08:38;;;;;;;36.90;19.70;;;;;;;-1.13;100.00;99570.66;5073752;28;20027;-72
2024/01/17 02:11:03;;;;;;;31.17;16.38;;;;;;;-1.06;100.00;99592.44;5054316;28;20036;-72
2024/01/17 02:13:29;;;;;;;32.95;18.13;;;;;;;-1.22;100.00;99585.91;5050538;28;20033;-72
2024/01/17 02:15:55;;;;;;;31.02;18.95;;;;;;;-1.36;100.00;99582.72;5055337;28;20056;-72
2024/01/17 02:18:21;;;;;;;34.30;18.45;;;;;;;-1.17;100.00;99585.97;5063567;28;20124;-72
2024/01/17 02:20:46;;;;;;;36.78;19.58;;;;;;;-1.24;100.00;99577.09;5053621;28;20183;-72
2024/01/17 02:23:23;;;;;;;30.70;18.63;;;;;;;-1.35;100.00;99593.41;5053448;28;20029;-71
2024/01/17 02:25:52;;;;;;;39.38;23.52;;;;;;;-1.42;100.00;99579.88;5055288;28;20021;-72
2024/01/17 02:28:18;;;;;;;43.67;23.75;;;;;;;-1.49;100.00;99583.88;5073092;28;20029;-72
2024/01/17 02:30:44;;;;;;;37.33;19.15;;;;;;;-1.52;100.00;99587.94;5064228;28;20102;-72
2024/01/17 02:33:09;;;;;;;37.60;20.02;;;;;;;-1.67;100.00;99591.31;5053352;28;20029;-72
2024/01/17 02:35:37;;;;;;;43.30;26.75;;;;;;;-1.74;100.00;99588.75;5034852;28;20108;-72
2024/01/17 02:38:03;;;;;;;39.20;24.52;;;;;;;-1.80;100.00;99583.44;5057159;28;20063;-72
2024/01/17 02:40:28;;;;;;;41.00;22.75;;;;;;;-1.67;100.00;99585.84;5035389;28;20044;-72
2024/01/17 02:42:54;;;;;;;42.70;21.48;;;;;;;-1.49;100.00;99583.88;5053737;28;20021;-72
2024/01/17 02:45:21;;;;;;;43.55;23.73;;;;;;;-1.50;100.00;99588.56;5042192;28;20042;-72
2024/01/17 02:47:46;;;;;;;35.30;19.88;;;;;;;-1.51;100.00;99577.81;5054529;28;20093;-72
2024/01/17 02:50:14;;;;;;;33.90;18.40;;;;;;;-1.36;100.00;99578.03;5055122;28;20443;-72
2024/01/17 02:52:44;;;;;;;36.17;18.75;;;;;;;-1.35;100.00;99579.69;5053540;28;20032;-72
2024/01/17 02:55:12;;;;;;;34.95;21.38;;;;;;;-1.36;100.00;99590.94;5073101;28;20027;-72
2024/01/17 02:57:39;;;;;;;33.88;19.48;;;;;;;-1.10;100.00;99581.13;5055552;28;20115;-72
2024/01/17 03:00:07;;;;;;;38.70;19.13;;;;;;;-1.16;100.00;99582.97;5034791;28;20032;-72
2024/01/17 03:02:33;;;;;;;33.17;19.35;;;;;;;-1.23;100.00;99568.63;5089478;28;20024;-72
2024/01/17 03:04:59;;;;;;;42.38;22.33;;;;;;;-0.98;100.00;99570.03;5092912;28;20024;-72
2024/01/17 03:07:24;;;;;;;38.90;23.00;;;;;;;-0.90;100.00;99564.09;5046860;28;20056;-72
2024/01/17 03:09:50;;;;;;;45.88;24.38;;;;;;;-0.76;100.00;99575.50;5034632;28;20017;-72
2024/01/17 03:12:15;;;;;;;40.67;22.13;;;;;;;-0.51;100.00;99563.13;5048459;28;20518;-72
2024/01/17 03:14:41;;;;;;;41.15;21.90;;;;;;;-0.50;99.55;99561.22;5052550;28;20032;-72
2024/01/17 03:17:07;;;;;;;43.70;24.02;;;;;;;-0.39;99.56;99562.97;5063752;28;20474;-72
2024/01/17 03:19:32;;;;;;;45.40;20.75;;;;;;;-0.30;98.66;99550.44;5054392;28;20516;-72
2024/01/17 03:21:58;;;;;;;40.22;21.40;;;;;;;-0.27;98.37;99551.81;5054211;28;20025;-72
2024/01/17 03:24:23;;;;;;;43.28;23.08;;;;;;;-0.27;97.62;99557.28;5033778;28;20186;-72
2024/01/17 03:26:49;;;;;;;44.78;22.75;;;;;;;-0.33;96.76;99563.84;5036701;28;20024;-72
2024/01/17 03:29:14;;;;;;;49.72;26.25;;;;;;;-0.53;96.76;99568.03;5052169;28;20551;-72
2024/01/17 03:31:39;;;;;;;60.35;31.00;;;;;;;-0.69;97.53;99569.78;5052095;28;20025;-72
2024/01/17 03:34:05;;;;;;;49.92;27.15;;;;;;;-1.14;99.14;99582.72;5052048;28;20031;-72
2024/01/17 03:36:30;;;;;;;40.92;22.80;;;;;;;-1.46;100.00;99586.97;5057512;28;20024;-72
2024/01/17 03:38:56;;;;;;;33.70;20.05;;;;;;;-1.62;100.00;99565.88;5071817;28;20048;-72
2024/01/17 03:41:22;;;;;;;36.80;21.42;;;;;;;-1.65;100.00;99575.44;5054117;28;20029;-72
2024/01/17 03:43:48;;;;;;;35.50;20.08;;;;;;;-1.37;100.00;99581.88;5052323;28;20027;-72
2024/01/17 03:46:13;;;;;;;46.95;24.35;;;;;;;-1.15;100.00;99587.41;5073876;28;20398;-72
2024/01/17 03:48:39;;;;;;;45.67;24.13;;;;;;;-0.93;100.00;99591.22;5070295;28;20029;-72
2024/01/17 03:51:05;;;;;;;39.47;21.17;;;;;;;-1.33;100.00;99599.50;5061501;28;20027;-72
2024/01/17 03:53:30;;;;;;;38.05;21.27;;;;;;;-1.11;100.00;99603.34;5033854;28;20486;-72
2024/01/17 03:55:56;;;;;;;34.53;18.75;;;;;;;-0.96;100.00;99605.47;5051588;28;20029;-75
2024/01/17 03:58:22;;;;;;;40.95;20.95;;;;;;;-0.88;99.54;99611.34;5070374;28;20085;-72
2024/01/17 04:00:47;;;;;;;41.92;22.50;;;;;;;-0.99;98.96;99615.84;5054159;28;20040;-72
2024/01/17 04:03:13;;;;;;;36.88;21.15;;;;;;;-1.64;100.00;99623.72;5033684;28;20525;-72
2024/01/17 04:05:43;;;;;;;33.92;21.02;;;;;;;-1.72;100.00;99630.47;5051721;28;20112;-72
2024/01/17 04:08:09;;;;;;;39.58;20.17;;;;;;;-1.35;100.00;99628.28;5034885;28;20036;-72
2024/01/17 04:10:34;;;;;;;36.70;21.92;;;;;;;-1.08;100.00;99636.63;5051842;28;20119;-72
2024/01/17 04:13:02;;;;;;;48.10;27.05;;;;;;;-1.04;100.00;99636.94;5048449;28;23452;-72
2024/01/17 04:15:29;;;;;;;43.80;25.13;;;;;;;-0.89;100.00;99617.94;5062006;28;20521;-72
2024/01/17 04:17:54;;;;;;;42.10;24.98;;;;;;;-0.79;99.91;99625.47;5051227;28;20025;-72
2024/01/17 04:20:20;;;;;;;52.08;28.88;;;;;;;-0.73;99.45;99626.34;5044291;28;20037;-72
2024/01/17 04:22:46;;;;;;;46.35;26.70;;;;;;;-0.79;99.56;99630.09;5033246;28;20029;-72
2024/01/17 04:25:11;;;;;;;45.13;25.88;;;;;;;-0.96;100.00;99631.00;5033294;28;20124;-72
2024/01/17 04:27:38;;;;;;;44.38;23.10;;;;;;;-1.20;100.00;99636.72;5051461;28;20036;-72
2024/01/17 04:30:05;;;;;;;35.03;22.58;;;;;;;-1.22;100.00;99627.91;5044913;28;20020;-72
2024/01/17 04:32:34;;;;;;;39.63;22.52;;;;;;;-0.87;99.85;99625.91;5071161;28;20055;-72
2024/01/17 04:35:00;;;;;;;40.33;21.52;;;;;;;-0.87;98.94;99626.75;5050665;28;20043;-72
2024/01/17 04:37:25;;;;;;;35.03;21.25;;;;;;;-1.14;100.00;99623.91;5050586;28;20509;-72
2024/01/17 04:39:51;;;;;;;42.58;23.67;;;;;;;-1.07;100.00;99635.53;5059352;28;20033;-72
2024/01/17 04:42:16;;;;;;;45.05;24.25;;;;;;;-1.37;99.82;99631.25;5033181;28;20033;-72
2024/01/17 04:44:43;;;;;;;48.05;23.92;;;;;;;-1.11;98.43;99655.53;5050913;28;20477;-72
2024/01/17 04:47:09;;;;;;;35.38;21.65;;;;;;;-1.05;97.45;99649.00;5032832;28;20033;-72
2024/01/17 04:49:35;;;;;;;53.97;30.17;;;;;;;-1.05;97.09;99655.34;5053256;28;20021;-72
2024/01/17 04:52:00;;;;;;;50.88;27.88;;;;;;;-1.20;97.95;99655.13;5052109;28;20033;-72
2024/01/17 04:54:30;;;;;;;48.25;25.15;;;;;;;-1.24;98.58;99664.94;5050672;28;20079;-72
2024/01/17 04:56:56;;;;;;;;;;;;;;;-1.21;98.32;99679.00;5051382;28;20025;-72
2024/01/17 04:59:21;;;;;;;52.78;29.85;;;;;;;-1.28;98.79;99670.94;5050731;28;19969;-72
2024/01/17 05:01:47;;;;;;;57.22;30.05;;;;;;;-1.02;98.11;99675.97;5032643;28;20083;-72
2024/01/17 05:04:12;;;;;;;51.67;28.08;;;;;;;-1.38;98.47;99676.25;5034999;28;20445;-72
2024/01/17 05:06:38;;;;;;;51.88;27.85;;;;;;;-1.15;99.00;99671.66;5059475;28;20057;-72
2024/01/17 05:09:07;;;;;;;47.40;25.67;;;;;;;-1.07;99.50;99678.63;5050641;28;20040;-72
2024/01/17 05:11:33;;;;;;;50.30;27.10;;;;;;;-1.01;98.54;99680.38;5049132;28;20484;-72
2024/01/17 05:13:58;;;;;;;44.97;26.00;;;;;;;-0.87;98.39;99673.44;5049293;28;20047;-72
2024/01/17 05:16:23;;;;;;;73.65;34.38;;;;;;;-0.89;98.53;99680.25;5051718;28;20410;-71
2024/01/17 05:18:52;;;;;;;100.28;48.53;;;;;;;-0.91;97.76;99677.75;5039232;28;20036;-71
2024/01/17 05:21:17;;;;;;;67.15;35.45;;;;;;;-0.79;97.48;99682.31;5071297;28;20025;-71
2024/01/17 05:23:43;;;;;;;71.75;33.60;;;;;;;-0.98;96.88;99682.63;5056783;28;20032;-71
2024/01/17 05:26:09;;;;;;;83.35;39.22;;;;;;;-1.06;97.04;99697.63;5063111;28;20386;-71
2024/01/17 05:28:35;;;;;;;77.32;36.10;;;;;;;-1.16;97.34;99692.78;5066144;28;20053;-71
2024/01/17 05:31:01;;;;;;;100.28;44.70;;;;;;;-1.37;98.07;99697.13;5048786;28;20488;-71
2024/01/17 05:33:26;;;;;;;111.95;49.33;;;;;;;-1.24;98.28;99693.22;5051437;28;20040;-70
2024/01/17 05:35:52;;;;;;;98.68;51.08;;;;;;;-1.53;99.32;99692.50;5066917;28;20039;-71
2024/01/17 05:38:17;;;;;;;197.25;92.13;;;;;;;-1.81;100.00;99702.41;5065457;28;20447;-71
2024/01/17 05:40:43;;;;;;;160.73;71.60;;;;;;;-1.71;100.00;99691.63;5055874;28;20025;-71
2024/01/17 05:43:08;;;;;;;90.22;45.13;;;;;;;-1.87;100.00;99687.78;5068167;28;20024;-71
2024/01/17 05:45:34;;;;;;;125.28;61.15;;;;;;;-1.72;100.00;99693.56;5069642;28;20031;-71
2024/01/17 05:47:59;;;;;;;123.78;59.88;;;;;;;-1.45;100.00;99700.28;5048194;28;20032;-71
2024/01/17 05:50:25;;;;;;;62.53;33.40;;;;;;;-1.50;100.00;99697.47;5059521;28;20401;-71
2024/01/17 05:52:50;;;;;;;68.13;35.22;;;;;;;-1.20;100.00;99701.78;5051780;28;20031;-70
2024/01/17 05:55:17;;;;;;;85.63;38.83;;;;;;;-1.08;100.00;99719.00;5071828;28;20029;-70
2024/01/17 05:57:42;;;;;;;79.25;36.80;;;;;;;-1.04;100.00;99711.91;5047622;28;20056;-70
2024/01/17 06:00:10;;;;;;;87.85;39.95;;;;;;;-1.74;100.00;99709.44;5053027;28;20056;-70
2024/01/17 06:02:40;;;;;;;93.38;44.88;;;;;;;-1.63;100.00;99696.72;5053891;28;20027;-70
2024/01/17 06:05:07;;;;;;;94.47;46.77;;;;;;;-1.34;100.00;99693.88;5052638;28;20417;-70
2024/01/17 06:07:33;;;;;;;124.32;60.70;;;;;;;-1.13;100.00;99691.44;5049293;28;20638;-70
2024/01/17 06:09:58;;;;;;;119.53;56.28;;;;;;;-1.13;100.00;99696.94;5073725;28;20020;-70
2024/01/17 06:12:24;;;;;;;133.90;59.08;;;;;;;-1.25;100.00;99712.69;5052703;28;20053;-70
2024/01/17 06:14:49;;;;;;;143.65;62.28;;;;;;;-1.49;100.00;99710.09;5052677;28;20036;-70
2024/01/17 06:17:15;;;;;;;127.07;60.97;;;;;;;-1.47;100.00;99718.91;5060048;28;20412;-70
2024/01/17 06:19:41;;;;;;;139.23;54.80;;;;;;;-1.49;100.00;99721.09;5073561;28;20028;-70
2024/01/17 06:22:10;;;;;;;97.10;44.38;;;;;;;-1.49;100.00;99723.81;5093003;28;20032;-71
2024/01/17 06:24:35;;;;;;;73.45;38.72;;;;;;;-1.70;100.00;99717.97;5053282;28;20496;-70
2024/01/17 06:27:02;;;;;;;69.00;35.90;;;;;;;-1.87;100.00;99718.78;5039388;28;20032;-72
2024/01/17 06:29:33;;;;;;;72.55;38.58;;;;;;;-1.89;100.00;99728.34;5073394;28;20199;-72
2024/01/17 06:31:59;;;;;;;70.18;36.30;;;;;;;-1.51;100.00;99740.53;5050408;28;20037;-70
2024/01/17 06:34:25;;;;;;;76.28;39.88;;;;;;;-1.53;100.00;99753.66;5067668;28;20119;-72
2024/01/17 06:36:50;;;;;;;49.15;23.60;;;;;;;-1.91;100.00;99753.28;5074053;28;20102;-71
2024/01/17 06:39:17;;;;;;;45.83;27.15;;;;;;;-1.72;100.00;99755.81;5061828;28;20031;-73
2024/01/17 06:41:42;;;;;;;37.17;21.52;;;;;;;-1.25;100.00;99754.69;5043527;28;20044;-69
2024/01/17 06:44:09;;;;;;;45.92;23.10;;;;;;;-1.15;100.00;99748.53;5037384;28;20025;-70
2024/01/17 06:46:35;;;;;;;35.38;20.27;;;;;;;-0.86;100.00;99741.00;5050650;28;20032;-70
2024/01/17 06:49:01;;;;;;;36.97;21.05;;;;;;;-1.13;100.00;99740.88;5053553;28;20032;-72
2024/01/17 06:51:26;;;;;;;34.53;20.80;;;;;;;-1.07;100.00;99737.13;5072118;28;20031;-73
2024/01/17 06:53:52;;;;;;;38.63;23.58;;;;;;;-0.60;100.00;99744.13;5056391;28;20029;-74
2024/01/17 06:56:17;;;;;;;33.47;20.10;;;;;;;-0.46;98.93;99749.25;5052638;28;20025;-70
2024/01/17 06:58:43;;;;;;;35.72;20.30;;;;;;;-0.30;97.97;99761.25;5051594;28;20025;-72
2024/01/17 07:01:09;;;;;;;36.33;17.92;;;;;;;-0.04;96.95;99747.81;5051957;28;20036;-73
2024/01/17 07:03:35;;;;;;;32.40;16.55;;;;;;;-0.08;97.07;99750.25;5040154;28;20058;-73
2024/01/17 07:06:01;;;;;;;30.33;15.93;;;;;;;-0.12;97.43;99749.09;5053162;28;20033;-73
2024/01/17 07:08:26;;;;;;;31.45;17.23;;;;;;;0.08;96.17;99751.25;5053872;28;20033;-72
2024/01/17 07:10:52;;;;;;;31.85;16.35;;;;;;;0.06;96.27;99738.84;5046714;28;20052;-72
2024/01/17 07:13:17;;;;;;;27.92;16.05;;;;;;;-0.09;96.54;99750.53;5052408;28;20020;-72
2024/01/17 07:15:43;;;;;;;24.13;15.18;;;;;;;-0.09;96.70;99745.03;5071264;28;20020;-71
2024/01/17 07:18:08;;;;;;;27.27;16.05;;;;;;;-0.07;96.34;99746.41;5054049;28;20024;-71
2024/01/17 07:20:34;;;;;;;26.35;15.20;;;;;;;0.17;96.30;99750.81;5070841;28;20489;-71
2024/01/17 07:22:59;;;;;;;25.75;15.07;;;;;;;-0.01;97.01;99745.38;5053893;28;20108;-72
2024/01/17 07:25:25;;;;;;;35.65;17.20;;;;;;;0.27;96.74;99748.97;5061793;28;20032;-70
2024/01/17 07:27:50;;;;;;;58.70;20.55;;;;;;;0.35;95.44;99753.19;5052480;28;20554;-71
2024/01/17 07:30:16;;;;;;;38.33;20.88;;;;;;;0.31;94.90;99763.06;5055864;28;20100;-71
2024/01/17 07:32:41;;;;;;;42.67;23.85;;;;;;;0.34;94.43;99751.53;5052221;28;20041;-72
2024/01/17 07:35:07;;;;;;;40.95;24.75;;;;;;;0.26;95.92;99744.56;5053973;28;20523;-73
2024/01/17 07:37:34;;;;;;;53.85;23.48;;;;;;;0.29;95.07;99740.47;5068330;28;20515;-72
2024/01/17 07:39:59;;;;;;;39.80;22.77;;;;;;;0.75;94.23;99737.28;5066331;28;20039;-73
2024/01/17 07:42:25;;;;;;;51.35;29.98;;;;;;;0.79;92.55;99737.59;5052176;28;20029;-72
2024/01/17 07:44:51;;;;;;;39.28;20.70;;;;;;;0.86;92.38;99735.47;5070639;28;21523;-71
2024/01/17 07:47:16;;;;;;;30.98;16.92;;;;;;;1.22;91.59;99732.97;5069731;28;20513;-73
2024/01/17 07:49:44;;;;;;;21.27;12.80;;;;;;;1.52;89.73;99739.72;5068755;28;20028;-73
2024/01/17 07:52:10;;;;;;;16.63;9.88;;;;;;;1.51;89.24;99727.03;5068509;28;20571;-72
2024/01/17 07:54:36;;;;;;;15.48;9.80;;;;;;;1.56;89.31;99734.50;5051636;28;20060;-71
2024/01/17 07:57:03;;;;;;;20.42;10.50;;;;;;;1.82;88.87;99742.88;5051101;28;20040;-71
2024/01/17 07:59:28;;;;;;;15.48;9.95;;;;;;;2.20;87.00;99732.50;5052775;28;20028;-73
2024/01/17 08:01:57;;;;;;;16.25;10.05;;;;;;;2.43;85.61;99729.53;5051227;28;20037;-69
2024/01/17 08:04:23;;;;;;;21.60;11.80;;;;;;;2.54;83.84;99728.44;5051282;28;20123;-70
2024/01/17 08:06:49;;;;;;;18.42;10.10;;;;;;;2.09;83.43;99728.06;5050091;28;20394;-70
2024/01/17 08:09:21;;;;;;;28.23;14.38;;;;;;;1.63;84.89;99739.78;5070419;28;20024;-71
2024/01/17 08:11:51;;;;;;;37.28;21.33;;;;;;;2.32;84.14;99729.50;5049261;28;20045;-71
2024/01/17 08:14:17;;;;;;;;;;;;;;;2.35;83.35;99731.72;5070028;28;20466;-69
2024/01/17 08:16:44;;;;;;;19.17;11.70;;;;;;;2.58;83.82;99729.53;5078803;28;19912;-71
2024/01/17 08:19:09;;;;;;;17.15;10.55;;;;;;;2.75;82.78;99729.28;5071046;28;20038;-73
2024/01/17 08:21:35;;;;;;;16.52;9.82;;;;;;;3.06;81.13;99726.47;5062503;28;20033;-71
2024/01/17 08:24:01;;;;;;;24.60;12.88;;;;;;;3.24;80.86;99735.31;5064804;28;20071;-70
2024/01/17 08:26:26;;;;;;;18.80;11.75;;;;;;;3.17;79.43;99745.81;5051499;28;20118;-74
2024/01/17 08:28:52;;;;;;;27.52;16.52;;;;;;;2.42;83.00;99752.72;5068959;28;20032;-74
2024/01/17 08:31:18;;;;;;;30.35;20.58;;;;;;;2.05;85.04;99752.66;5050802;28;20024;-73
2024/01/17 08:33:44;;;;;;;25.70;14.50;;;;;;;2.03;84.41;99746.53;5068113;28;20035;-71
2024/01/17 08:36:09;;;;;;;22.60;13.82;;;;;;;2.11;83.70;99742.41;5068612;28;20081;-73
2024/01/17 08:38:35;;;;;;;22.88;13.55;;;;;;;2.19;83.53;99738.31;5050595;28;20024;-73
2024/01/17 08:41:01;;;;;;;15.20;9.45;;;;;;;2.39;83.33;99727.28;5068015;28;20481;-73
2024/01/17 08:43:26;;;;;;;16.80;11.10;;;;;;;2.56;83.82;99734.50;5050251;28;20123;-73
2024/01/17 08:45:52;;;;;;;18.20;10.00;;;;;;;2.71;83.20;99733.66;5058189;28;20055;-69
2024/01/17 08:48:17;;;;;;;15.32;10.18;;;;;;;2.71;81.78;99711.56;5087682;28;20031;-71
2024/01/17 08:50:43;;;;;;;18.25;11.45;;;;;;;2.68;82.68;99717.66;5049129;28;20106;-68
2024/01/17 08:53:09;;;;;;;16.30;10.02;;;;;;;3.22;82.29;99716.22;5030623;28;20037;-69
2024/01/17 08:55:35;;;;;;;16.88;10.20;;;;;;;3.54;80.39;99711.41;5065687;28;20028;-71
2024/01/17 08:58:00;;;;;;;18.88;10.60;;;;;;;3.90;79.81;99713.22;5059027;28;20455;-69
2024/01/17 09:00:26;;;;;;;14.75;10.18;;;;;;;4.04;78.23;99708.72;5042865;28;20108;-70
2024/01/17 09:02:51;;;;;;;16.33;10.23;;;;;;;4.41;77.41;99712.09;5069276;28;20043;-70
2024/01/17 09:05:18;;;;;;;17.17;10.10;;;;;;;4.58;74.44;99710.84;5065223;28;20036;-70
2024/01/17 09:07:45;;;;;;;15.65;10.00;;;;;;;4.91;73.59;99711.94;5069188;28;20470;-70
2024/01/17 09:10:13;;;;;;;15.35;10.23;;;;;;;5.17;72.38;99711.69;5065972;28;20025;-70
2024/01/17 09:12:38;;;;;;;15.63;10.40;;;;;;;5.33;71.86;99708.78;5059674;28;20715;-70
2024/01/17 09:15:04;;;;;;;71.30;33.22;;;;;;;5.45;70.02;99700.88;5050652;28;20075;-70
2024/01/17 09:17:30;;;;;;;18.35;11.43;;;;;;;5.33;69.25;99695.72;5060216;28;20085;-70
2024/01/17 09:19:56;;;;;;;16.42;9.32;;;;;;;4.52;70.86;99698.16;5065288;28;20040;-70
2024/01/17 09:22:23;;;;;;;18.05;10.07;;;;;;;4.51;72.08;99705.66;5070430;28;20574;-70
2024/01/17 09:24:48;;;;;;;14.70;9.27;;;;;;;4.64;70.29;99695.81;5059841;28;20404;-70
2024/01/17 09:27:14;;;;;;;18.92;11.38;;;;;;;4.86;72.24;99681.53;5057877;28;20024;-70
2024/01/17 09:29:39;;;;;;;15.23;10.38;;;;;;;5.03;71.42;99681.09;5054766;28;20020;-70
2024/01/17 09:32:06;;;;;;;16.33;11.02;;;;;;;5.13;71.23;99680.13;5054828;28;20135;-70
2024/01/17 09:34:32;;;;;;;14.63;9.85;;;;;;;5.34;70.55;99677.16;5060843;28;20032;-70
2024/01/17 09:36:59;;;;;;;17.13;12.25;;;;;;;5.46;70.62;99677.56;5069324;28;20032;-70
2024/01/17 09:39:25;;;;;;;18.42;11.27;;;;;;;5.33;69.70;99667.19;5075891;28;20106;-71
2024/01/17 09:41:52;;;;;;;16.67;11.07;;;;;;;5.59;69.93;99677.97;5071594;28;20073;-70
2024/01/17 09:44:17;;;;;;;15.85;10.25;;;;;;;5.46;68.38;99677.56;5071415;28;20060;-70
2024/01/17 09:46:43;;;;;;;20.10;10.23;;;;;;;5.35;68.73;99673.25;5076276;28;20123;-70
2024/01/17 09:49:09;;;;;;;18.45;12.13;;;;;;;5.44;69.64;99654.84;5065019;28;20062;-70
2024/01/17 09:51:36;;;;;;;18.98;12.70;;;;;;;5.75;68.47;99648.88;5079670;28;20039;-70
2024/01/17 09:54:05;;;;;;;20.25;11.85;;;;;;;5.70;68.07;99643.41;5061174;28;20039;-70
2024/01/17 09:56:32;;;;;;;15.38;11.00;;;;;;;5.87;67.61;99642.06;5042179;28;20448;-71
2024/01/17 09:59:13;;;;;;;19.60;11.98;;;;;;;5.77;65.57;99640.25;5068919;28;20386;-71
2024/01/17 10:01:40;;;;;;;19.40;12.85;;;;;;;5.74;65.51;99647.22;5069361;28;20060;-70
2024/01/17 10:04:05;;;;;;;15.43;9.55;;;;;;;6.08;65.83;99641.81;5071893;28;20020;-71
2024/01/17 10:06:31;;;;;;;15.55;9.77;;;;;;;6.27;64.60;99639.00;5071066;28;20020;-71
2024/01/17 10:08:58;;;;;;;16.33;9.23;;;;;;;6.37;63.52;99646.34;5083994;28;20573;-71
2024/01/17 10:11:24;;;;;;;20.00;9.60;;;;;;;6.34;63.68;99641.41;5086387;28;20039;-71
2024/01/17 10:13:50;;;;;;;12.82;9.23;;;;;;;6.44;63.39;99632.91;5060199;28;20020;-71
2024/01/17 10:16:15;;;;;;;13.38;9.18;;;;;;;6.62;63.88;99634.00;5073553;28;20027;-71
2024/01/17 10:18:41;;;;;;;17.05;10.13;;;;;;;6.77;62.66;99629.28;5065226;28;20485;-71
2024/01/17 10:21:07;;;;;;;19.85;10.60;;;;;;;6.55;63.97;99620.50;5070480;28;20116;-71
2024/01/17 10:23:33;;;;;;;15.90;10.32;;;;;;;6.96;63.16;99624.50;5064833;28;20522;-72
2024/01/17 10:25:59;;;;;;;16.92;10.02;;;;;;;6.59;63.66;99617.94;5066552;28;20016;-72
2024/01/17 10:28:24;;;;;;;20.33;10.38;;;;;;;6.90;63.35;99608.22;5076975;28;20016;-71
2024/01/17 10:30:50;;;;;;;17.40;9.40;;;;;;;6.80;62.10;99617.56;5060584;28;20385;-72
2024/01/17 10:33:15;;;;;;;15.98;9.82;;;;;;;6.71;62.96;99606.31;5057102;28;20032;-71
2024/01/17 10:35:41;;;;;;;18.05;10.10;;;;;;;6.69;63.18;99611.34;5076616;28;20077;-71
2024/01/17 10:38:08;;;;;;;18.40;10.77;;;;;;;6.70;64.10;99604.66;5053400;28;20016;-71
2024/01/17 10:40:33;;;;;;;15.45;9.52;;;;;;;6.84;63.32;99590.81;5052911;28;20070;-71
2024/01/17 10:43:05;;;;;;;24.33;9.77;;;;;;;6.85;62.50;99586.88;5078454;28;20020;-71
2024/01/17 10:45:34;;;;;;;14.38;9.38;;;;;;;6.83;62.60;99586.38;5075086;28;20021;-71
2024/01/17 10:48:00;;;;;;;19.45;10.02;;;;;;;7.03;62.62;99576.81;5072887;28;20525;-71
2024/01/17 10:50:26;;;;;;;16.70;10.30;;;;;;;6.81;61.60;99570.00;5067442;28;20025;-71
2024/01/17 10:52:53;;;;;;;14.82;9.10;;;;;;;6.90;62.03;99563.72;5062127;28;20027;-71
2024/01/17 10:55:21;;;;;;;14.55;10.30;;;;;;;6.98;62.54;99561.03;5076959;28;20020;-71
2024/01/17 10:57:52;;;;;;;16.65;10.48;;;;;;;6.80;62.55;99548.88;5080969;28;20452;-71
2024/01/17 11:00:26;;;;;;;13.68;10.32;;;;;;;6.93;63.72;99546.41;5060598;28;20020;-71
2024/01/17 11:02:52;;;;;;;17.10;10.05;;;;;;;6.95;63.85;99544.97;5059234;28;20024;-71
2024/01/17 11:05:22;;;;;;;18.95;10.82;;;;;;;7.18;64.12;99541.47;5054253;28;20078;-70
2024/01/17 11:07:48;;;;;;;15.63;9.98;;;;;;;7.00;63.82;99536.53;5054449;28;20032;-69
2024/01/17 11:10:15;;;;;;;17.40;10.90;;;;;;;7.09;63.37;99530.25;5068952;28;20119;-70
2024/01/17 11:12:41;;;;;;;18.00;10.35;;;;;;;7.11;63.79;99516.84;5069246;28;20055;-71